Time;durP1;ratioP1;P1;durP2;ratioP2;P2;SDS_P1;SDS_P2;PMS_P1;PMS_P2;Temp;Humidity;BMP_temperature;BMP_pressure;BME280_temperature;BME280_humidity;BME280_pressure;Samples;Min_cycle;Max_cycle;Signal;HPM_P1;HPM_P2
2021/04/09 00:01:59;;;;;;;15.63;9.88;;;0.50;99.90;;;;;;5032261;28;20442;-74
2021/04/09 00:04:25;;;;;;;14.85;9.15;;;0.50;99.90;;;;;;5031546;28;20068;-72
2021/04/09 00:06:52;;;;;;;16.00;9.27;;;0.40;99.90;;;;;;5032144;28;20057;-73
2021/04/09 00:09:18;;;;;;;15.77;9.40;;;0.30;99.90;;;;;;5031861;28;20060;-73
2021/04/09 00:11:43;;;;;;;16.90;9.52;;;0.40;99.90;;;;;;5031710;28;20071;-73
2021/04/09 00:14:13;;;;;;;15.48;8.82;;;0.30;99.90;;;;;;5031252;28;20032;-73
2021/04/09 00:16:39;;;;;;;15.15;8.75;;;0.20;99.90;;;;;;5031934;28;20026;-73
2021/04/09 00:19:13;;;;;;;17.15;8.82;;;0.20;99.90;;;;;;5031628;28;20022;-73
2021/04/09 00:21:38;;;;;;;13.80;9.07;;;0.30;99.90;;;;;;5031867;28;20021;-74
2021/04/09 00:24:04;;;;;;;17.92;8.82;;;0.20;99.90;;;;;;5029622;28;20032;-75
2021/04/09 00:26:30;;;;;;;12.73;8.52;;;0.20;99.90;;;;;;5031660;28;20399;-74
2021/04/09 00:28:55;;;;;;;16.98;9.18;;;0.10;99.90;;;;;;5030106;28;20036;-73
2021/04/09 00:31:21;;;;;;;16.95;9.45;;;0.10;99.90;;;;;;5031600;28;20450;-74
2021/04/09 00:33:47;;;;;;;17.60;9.23;;;0.10;99.90;;;;;;5030736;28;20116;-73
2021/04/09 00:36:13;;;;;;;18.30;9.80;;;0.20;99.90;;;;;;5030895;28;20060;-73
2021/04/09 00:38:38;;;;;;;14.30;8.90;;;0.20;99.90;;;;;;5031210;28;20029;-73
2021/04/09 00:41:04;;;;;;;17.27;9.35;;;0.10;99.90;;;;;;5031403;28;20067;-73
2021/04/09 00:43:30;;;;;;;18.80;9.63;;;0.10;99.90;;;;;;5029631;28;20032;-73
2021/04/09 00:45:56;;;;;;;15.38;9.15;;;0.00;99.90;;;;;;5031349;28;20029;-73
2021/04/09 00:48:22;;;;;;;15.45;8.88;;;0.00;99.90;;;;;;5031247;28;20037;-72
2021/04/09 00:50:47;;;;;;;14.02;9.50;;;0.00;99.90;;;;;;5031097;28;20503;-72
2021/04/09 00:53:15;;;;;;;14.48;9.50;;;-0.10;99.90;;;;;;5030330;28;20025;-73
2021/04/09 00:55:42;;;;;;;21.85;11.32;;;-0.20;99.90;;;;;;5031311;28;20095;-73
2021/04/09 00:58:08;;;;;;;16.00;9.73;;;-0.20;99.90;;;;;;5029809;28;20124;-73
2021/04/09 01:00:34;;;;;;;19.80;9.75;;;-0.20;99.90;;;;;;5031465;28;20126;-73
2021/04/09 01:03:00;;;;;;;22.95;10.15;;;-0.20;99.90;;;;;;5030606;28;20030;-72
2021/04/09 01:05:26;;;;;;;15.65;9.52;;;-0.20;99.90;;;;;;5030864;28;20021;-72
2021/04/09 01:07:52;;;;;;;17.75;10.38;;;-0.20;99.90;;;;;;5031139;28;20032;-73
2021/04/09 01:10:20;;;;;;;17.35;11.18;;;-0.20;99.90;;;;;;5031186;28;20030;-74
2021/04/09 01:12:47;;;;;;;16.27;10.43;;;-0.30;99.90;;;;;;5029212;28;20199;-74
2021/04/09 01:15:15;;;;;;;17.08;9.82;;;-0.30;99.90;;;;;;5031099;28;20053;-73
2021/04/09 01:18:15;;;;;;;20.95;10.57;;;-0.30;99.90;;;;;;5031043;28;20045;-72
2021/04/09 01:21:14;;;;;;;20.55;10.52;;;-0.40;99.90;;;;;;5030782;28;20164;-75
2021/04/09 01:23:47;;;;;;;21.40;11.32;;;-0.40;99.90;;;;;;5030391;28;20025;-74
2021/04/09 01:26:35;;;;;;;19.33;10.70;;;-0.40;99.90;;;;;;5031042;28;20040;-74
2021/04/09 01:29:18;;;;;;;19.90;11.02;;;-0.30;99.90;;;;;;5031065;28;20464;-74
2021/04/09 01:31:48;;;;;;;22.55;10.32;;;-0.40;99.90;;;;;;5030967;28;20047;-73
2021/04/09 01:34:15;;;;;;;19.17;10.77;;;-0.50;99.90;;;;;;5030397;28;20387;-71
2021/04/09 01:36:55;;;;;;;22.13;11.95;;;-0.50;99.90;;;;;;5030613;28;20047;-74
2021/04/09 01:39:31;;;;;;;16.83;10.48;;;-0.50;99.90;;;;;;5030904;28;20025;-72
2021/04/09 01:41:57;;;;;;;17.73;11.15;;;-0.60;99.90;;;;;;5030858;28;20096;-74
2021/04/09 01:44:27;;;;;;;20.73;11.48;;;-0.60;99.90;;;;;;5028899;28;20037;-73
2021/04/09 01:46:55;;;;;;;20.58;11.45;;;-0.60;99.90;;;;;;5030692;28;20548;-73
2021/04/09 01:49:22;;;;;;;28.73;12.02;;;-0.60;99.90;;;;;;5031843;28;20026;-73
2021/04/09 01:51:50;;;;;;;17.58;11.23;;;-0.60;99.90;;;;;;5034166;28;20455;-73
2021/04/09 01:54:19;;;;;;;19.90;11.23;;;-0.60;99.90;;;;;;5033692;28;20470;-73
2021/04/09 01:56:46;;;;;;;21.33;11.45;;;-0.60;99.90;;;;;;5034552;28;20017;-74
2021/04/09 01:59:14;;;;;;;17.42;11.23;;;-0.70;99.90;;;;;;5034146;28;20045;-73
2021/04/09 02:01:44;;;;;;;21.73;11.98;;;-0.70;99.90;;;;;;5034195;28;20017;-73
2021/04/09 02:04:10;;;;;;;25.25;11.73;;;-0.70;99.90;;;;;;5033294;28;20029;-74
2021/04/09 02:06:39;;;;;;;18.83;11.95;;;-0.70;99.90;;;;;;5032413;28;20033;-72
2021/04/09 02:09:05;;;;;;;20.98;11.13;;;-0.80;99.90;;;;;;5032639;28;20041;-72
2021/04/09 02:11:35;;;;;;;24.80;11.15;;;-0.80;99.90;;;;;;5034038;28;20536;-73
2021/04/09 02:14:03;;;;;;;19.35;10.90;;;-0.80;99.90;;;;;;5033241;28;20496;-73
2021/04/09 02:16:29;;;;;;;17.88;10.52;;;-0.80;99.90;;;;;;5033815;28;20022;-72
2021/04/09 02:18:58;;;;;;;19.73;11.23;;;-0.80;99.90;;;;;;5033716;28;20036;-72
2021/04/09 02:21:24;;;;;;;26.55;11.00;;;-0.80;99.90;;;;;;5033511;28;20022;-72
2021/04/09 02:23:50;;;;;;;18.08;10.98;;;-0.90;99.90;;;;;;5033157;28;20029;-72
2021/04/09 02:26:16;;;;;;;23.35;11.98;;;-0.90;99.90;;;;;;5033676;28;20499;-73
2021/04/09 02:28:41;;;;;;;22.42;13.02;;;-0.90;99.90;;;;;;5033631;28;20455;-72
2021/04/09 02:31:11;;;;;;;18.98;12.45;;;-0.90;99.90;;;;;;5032169;28;20029;-74
2021/04/09 02:33:38;;;;;;;23.02;13.38;;;-0.90;99.90;;;;;;5032891;28;20026;-71
2021/04/09 02:36:25;;;;;;;21.73;12.73;;;-1.00;99.90;;;;;;5033158;28;20025;-72
2021/04/09 02:38:54;;;;;;;22.15;11.95;;;-0.90;99.90;;;;;;5033780;28;20379;-72
2021/04/09 02:41:24;;;;;;;25.95;12.40;;;-1.00;99.90;;;;;;5037922;28;20476;-73
2021/04/09 02:43:50;;;;;;;22.63;11.80;;;-1.00;99.90;;;;;;5042518;28;20025;-72
2021/04/09 02:46:35;;;;;;;21.10;11.77;;;-0.90;99.90;;;;;;5042952;28;20021;-72
2021/04/09 02:49:12;;;;;;;19.83;12.27;;;-1.00;99.90;;;;;;5036674;28;20131;-72
2021/04/09 02:51:41;;;;;;;26.08;12.30;;;-1.00;99.90;;;;;;5034713;28;20032;-71
2021/04/09 02:54:11;;;;;;;22.20;12.05;;;-1.00;99.90;;;;;;5032786;28;20120;-74
2021/04/09 02:56:40;;;;;;;19.50;12.00;;;-1.10;99.90;;;;;;5033473;28;20022;-73
2021/04/09 02:59:11;;;;;;;23.85;12.35;;;-1.00;99.90;;;;;;5032836;28;20608;-73
2021/04/09 03:01:40;;;;;;;26.13;13.35;;;-1.00;99.90;;;;;;5033424;28;20017;-73
2021/04/09 03:04:06;;;;;;;21.42;12.70;;;-1.00;99.90;;;;;;5031081;28;20616;-72
2021/04/09 03:06:38;;;;;;;21.13;12.55;;;-1.00;99.90;;;;;;5032716;28;20040;-72
2021/04/09 03:09:07;;;;;;;21.95;11.77;;;-1.00;99.90;;;;;;5033061;28;20022;-72
2021/04/09 03:11:33;;;;;;;22.92;12.48;;;-1.10;99.90;;;;;;5032992;28;20053;-74
2021/04/09 03:14:00;;;;;;;22.20;12.70;;;-1.10;99.90;;;;;;5032323;28;20526;-73
2021/04/09 03:16:27;;;;;;;19.90;12.40;;;-1.00;99.90;;;;;;5032781;28;20053;-73
2021/04/09 03:18:53;;;;;;;21.23;12.63;;;-1.00;99.90;;;;;;5032642;28;20096;-72
2021/04/09 03:21:19;;;;;;;19.48;11.48;;;-1.00;99.90;;;;;;5032512;28;20054;-73
2021/04/09 03:23:44;;;;;;;22.02;11.85;;;-1.00;99.90;;;;;;5032274;28;20606;-73
2021/04/09 03:26:11;;;;;;;20.30;11.52;;;-1.00;99.90;;;;;;5032608;28;20045;-73
2021/04/09 03:28:37;;;;;;;20.80;11.95;;;-1.00;99.90;;;;;;5032715;28;20029;-72
2021/04/09 03:31:03;;;;;;;25.20;12.10;;;-1.00;99.90;;;;;;5032704;28;20475;-72
2021/04/09 03:33:28;;;;;;;21.23;12.27;;;-1.00;99.90;;;;;;5030568;28;20025;-72
2021/04/09 03:35:54;;;;;;;21.33;12.45;;;-1.00;99.90;;;;;;5032472;28;20018;-72
2021/04/09 03:38:20;;;;;;;22.40;12.55;;;-1.00;99.90;;;;;;5032477;28;20907;-73
2021/04/09 03:40:46;;;;;;;22.80;11.25;;;-1.00;99.90;;;;;;5032418;28;20028;-73
2021/04/09 03:43:13;;;;;;;25.60;12.73;;;-1.00;99.90;;;;;;5031967;28;20091;-72
2021/04/09 03:45:39;;;;;;;21.38;11.82;;;-0.90;99.90;;;;;;5032727;28;20060;-73
2021/04/09 03:48:06;;;;;;;26.30;12.45;;;-1.00;99.90;;;;;;5032938;28;20499;-72
2021/04/09 03:50:32;;;;;;;20.85;12.18;;;-0.90;99.90;;;;;;5032537;28;20034;-72
2021/04/09 03:52:58;;;;;;;20.92;12.68;;;-0.90;99.90;;;;;;5032082;28;20030;-74
2021/04/09 03:55:23;;;;;;;23.92;12.48;;;-1.00;99.90;;;;;;5031407;28;20037;-72
2021/04/09 03:57:49;;;;;;;22.98;12.10;;;-1.00;99.90;;;;;;5032233;28;20468;-74
2021/04/09 04:00:16;;;;;;;23.45;12.48;;;-1.00;99.90;;;;;;5032405;28;20084;-72
2021/04/09 04:02:41;;;;;;;20.17;11.60;;;-1.10;99.90;;;;;;5032078;28;20029;-73
2021/04/09 04:05:08;;;;;;;21.20;11.98;;;-1.20;99.90;;;;;;5032885;28;20036;-73
2021/04/09 04:07:35;;;;;;;26.17;12.93;;;-1.20;99.90;;;;;;5034188;28;20064;-74
2021/04/09 04:10:01;;;;;;;23.48;12.57;;;-1.10;99.90;;;;;;5032314;28;20377;-73
2021/04/09 04:12:27;;;;;;;24.45;13.23;;;-1.10;99.90;;;;;;5033021;28;20032;-72
2021/04/09 04:14:52;;;;;;;22.10;12.43;;;-1.10;99.90;;;;;;5034905;28;20025;-71
2021/04/09 04:17:19;;;;;;;25.15;13.52;;;-1.10;99.90;;;;;;5050701;28;20022;-72
2021/04/09 04:19:45;;;;;;;20.55;12.52;;;-1.20;99.90;;;;;;5052431;28;20029;-72
2021/04/09 04:22:10;;;;;;;23.40;12.18;;;-1.20;99.90;;;;;;5052292;28;20021;-72
2021/04/09 04:24:36;;;;;;;22.52;13.55;;;-1.20;99.90;;;;;;5052175;28;20052;-72
2021/04/09 04:27:02;;;;;;;24.05;13.02;;;-1.30;99.90;;;;;;5045476;28;20064;-73
2021/04/09 04:29:28;;;;;;;21.95;13.40;;;-1.30;99.90;;;;;;5033114;28;20033;-72
2021/04/09 04:31:53;;;;;;;23.20;13.55;;;-1.40;99.90;;;;;;5032544;28;20022;-71
2021/04/09 04:34:19;;;;;;;20.80;12.73;;;-1.20;99.90;;;;;;5031786;28;20099;-72
2021/04/09 04:36:45;;;;;;;24.02;13.93;;;-1.20;99.90;;;;;;5032230;28;20071;-73
2021/04/09 04:39:10;;;;;;;23.38;13.10;;;-1.30;99.90;;;;;;5032687;28;20030;-74
2021/04/09 04:41:36;;;;;;;25.27;12.82;;;-1.20;99.90;;;;;;5033146;28;20021;-72
2021/04/09 04:44:02;;;;;;;19.48;12.27;;;-1.30;99.90;;;;;;5032662;28;20026;-73
2021/04/09 04:46:27;;;;;;;28.40;13.95;;;-1.40;99.90;;;;;;5032298;28;20112;-72
2021/04/09 04:48:53;;;;;;;22.65;13.13;;;-1.30;99.90;;;;;;5032297;28;20055;-72
2021/04/09 04:51:19;;;;;;;23.15;13.07;;;-1.30;99.90;;;;;;5033427;28;20030;-72
2021/04/09 04:53:44;;;;;;;24.70;12.75;;;-1.20;99.90;;;;;;5031802;28;20029;-72
2021/04/09 04:56:10;;;;;;;22.70;13.38;;;-1.20;99.90;;;;;;5032468;28;20106;-71
2021/04/09 04:58:36;;;;;;;24.35;13.15;;;-1.20;99.90;;;;;;5030760;28;20057;-72
2021/04/09 05:01:01;;;;;;;23.98;11.80;;;-1.20;99.90;;;;;;5035726;28;20076;-73
2021/04/09 05:03:27;;;;;;;23.17;12.05;;;-1.20;99.90;;;;;;5044223;28;20030;-72
2021/04/09 05:05:53;;;;;;;23.65;13.02;;;-1.10;99.90;;;;;;5033865;28;20033;-71
2021/04/09 05:08:18;;;;;;;21.35;11.98;;;-1.10;99.90;;;;;;5030683;28;20022;-72
2021/04/09 05:10:44;;;;;;;20.23;12.02;;;-1.10;99.90;;;;;;5032240;28;20097;-73
2021/04/09 05:13:10;;;;;;;22.13;12.40;;;-1.10;99.90;;;;;;5027922;28;20460;-72
2021/04/09 05:15:36;;;;;;;26.05;12.95;;;-1.10;99.90;;;;;;5027330;28;20166;-72
2021/04/09 05:18:02;;;;;;;20.23;12.30;;;-1.00;99.90;;;;;;5032008;28;20068;-72
2021/04/09 05:20:27;;;;;;;19.65;12.20;;;-0.90;99.90;;;;;;5032134;28;20065;-73
2021/04/09 05:22:53;;;;;;;24.67;12.85;;;-0.90;99.90;;;;;;5035300;28;20032;-74
2021/04/09 05:25:19;;;;;;;22.45;13.38;;;-0.80;99.90;;;;;;5036217;28;20594;-73
2021/04/09 05:27:44;;;;;;;21.35;11.68;;;-0.70;99.90;;;;;;5035882;28;20025;-71
2021/04/09 05:30:10;;;;;;;19.20;11.43;;;-0.70;99.90;;;;;;5035579;28;20075;-72
2021/04/09 05:32:36;;;;;;;23.73;11.20;;;-0.60;99.90;;;;;;5033558;28;20076;-70
2021/04/09 05:35:03;;;;;;;18.73;10.52;;;-0.50;99.90;;;;;;5035604;28;20065;-71
2021/04/09 05:37:28;;;;;;;20.45;10.98;;;-0.60;99.90;;;;;;5036354;28;20117;-73
2021/04/09 05:39:54;;;;;;;19.85;9.80;;;-0.60;99.90;;;;;;5037912;28;20076;-75
2021/04/09 05:42:20;;;;;;;16.10;9.43;;;-0.60;99.90;;;;;;5037002;28;20071;-74
2021/04/09 05:44:45;;;;;;;14.07;8.88;;;-0.60;99.90;;;;;;5035225;28;20028;-75
2021/04/09 05:47:11;;;;;;;13.48;9.23;;;-0.50;99.90;;;;;;5035852;28;20040;-74
2021/04/09 05:49:37;;;;;;;17.35;10.15;;;-0.60;99.90;;;;;;5035567;28;20065;-74
2021/04/09 05:52:05;;;;;;;17.95;9.20;;;-0.60;99.90;;;;;;5035227;28;20021;-74
2021/04/09 05:54:31;;;;;;;17.85;9.20;;;-0.40;99.90;;;;;;5034563;28;20113;-75
2021/04/09 05:56:59;;;;;;;14.95;8.32;;;-0.20;99.90;;;;;;5035343;28;20022;-70
2021/04/09 05:59:25;;;;;;;13.88;9.43;;;0.00;99.90;;;;;;5032943;28;20029;-73
2021/04/09 06:01:50;;;;;;;16.50;8.93;;;0.20;99.90;;;;;;5035170;28;20022;-74
2021/04/09 06:04:16;;;;;;;15.95;9.25;;;0.20;99.90;;;;;;5034906;28;20029;-73
2021/04/09 06:06:42;;;;;;;20.40;8.93;;;0.40;99.90;;;;;;5034012;28;20040;-74
2021/04/09 06:09:08;;;;;;;13.27;8.13;;;0.60;99.90;;;;;;5035037;28;20017;-75
2021/04/09 06:11:34;;;;;;;12.90;8.50;;;0.70;99.90;;;;;;5035129;28;20037;-74
2021/04/09 06:14:00;;;;;;;16.23;8.95;;;0.80;99.90;;;;;;5034416;28;20030;-72
2021/04/09 06:16:26;;;;;;;12.45;8.38;;;0.90;99.90;;;;;;5034904;28;20017;-73
2021/04/09 06:18:51;;;;;;;14.38;9.05;;;1.10;99.90;;;;;;5031211;28;20052;-73
2021/04/09 06:21:18;;;;;;;17.13;9.27;;;1.10;99.90;;;;;;5023779;28;20030;-74
2021/04/09 06:23:44;;;;;;;15.07;8.57;;;1.10;99.90;;;;;;5019664;28;20049;-72
2021/04/09 06:26:10;;;;;;;14.20;9.40;;;1.10;99.90;;;;;;5034500;28;20553;-73
2021/04/09 06:28:36;;;;;;;19.98;10.25;;;1.30;99.90;;;;;;5015363;28;20026;-71
2021/04/09 06:31:02;;;;;;;17.25;8.77;;;1.30;99.90;;;;;;5014679;28;20112;-73
2021/04/09 06:33:27;;;;;;;17.67;9.27;;;1.40;99.90;;;;;;5013136;28;20342;-71
2021/04/09 06:35:53;;;;;;;15.18;9.43;;;1.50;99.90;;;;;;5014225;28;20026;-71
2021/04/09 06:38:19;;;;;;;17.20;8.95;;;1.70;99.90;;;;;;5014538;28;20025;-73
2021/04/09 06:40:45;;;;;;;15.38;8.40;;;1.80;99.90;;;;;;5014634;28;20049;-72
2021/04/09 06:43:11;;;;;;;19.48;9.63;;;1.70;99.90;;;;;;5013511;28;20100;-73
2021/04/09 06:45:39;;;;;;;17.77;8.73;;;1.80;99.90;;;;;;5014446;28;20092;-73
2021/04/09 06:48:09;;;;;;;17.50;9.00;;;1.90;99.90;;;;;;5013965;28;20365;-72
2021/04/09 06:50:35;;;;;;;17.40;9.30;;;1.80;99.90;;;;;;5025172;28;20033;-72
2021/04/09 06:53:01;;;;;;;16.17;9.23;;;2.00;99.90;;;;;;5033899;28;20156;-71
2021/04/09 06:55:27;;;;;;;17.40;9.82;;;2.00;99.90;;;;;;5032789;28;20631;-73
2021/04/09 06:57:53;;;;;;;19.38;9.52;;;2.10;99.90;;;;;;5032035;28;20555;-70
2021/04/09 07:00:22;;;;;;;13.60;9.32;;;2.20;99.90;;;;;;5033936;28;20094;-70
2021/04/09 07:02:48;;;;;;;24.02;9.75;;;2.40;99.90;;;;;;5032944;28;20022;-70
2021/04/09 07:05:15;;;;;;;17.77;9.40;;;2.60;99.90;;;;;;5033508;28;20120;-71
2021/04/09 07:07:40;;;;;;;18.13;9.30;;;2.60;99.90;;;;;;5032878;28;20036;-71
2021/04/09 07:10:08;;;;;;;17.80;10.05;;;2.80;99.90;;;;;;5034740;28;20022;-71
2021/04/09 07:12:34;;;;;;;19.70;9.90;;;2.90;99.90;;;;;;5033742;28;20535;-71
2021/04/09 07:15:03;;;;;;;16.58;10.32;;;3.30;99.90;;;;;;5033200;28;20021;-71
2021/04/09 07:17:45;;;;;;;14.02;9.63;;;3.50;99.90;;;;;;5031815;28;20102;-71
2021/04/09 07:20:18;;;;;;;16.83;9.60;;;3.80;99.90;;;;;;5033859;28;20031;-71
2021/04/09 07:22:52;;;;;;;19.08;9.50;;;4.00;99.90;;;;;;5031449;28;20033;-71
2021/04/09 07:25:20;;;;;;;13.88;8.60;;;4.20;99.90;;;;;;5033512;28;20096;-71
2021/04/09 07:27:48;;;;;;;15.32;9.45;;;4.50;99.90;;;;;;5032910;28;20579;-70
2021/04/09 07:30:31;;;;;;;16.33;9.07;;;4.80;99.90;;;;;;5032913;28;20030;-69
2021/04/09 07:33:05;;;;;;;17.23;9.18;;;4.80;99.90;;;;;;5032097;28;20441;-73
2021/04/09 07:35:43;;;;;;;17.10;9.48;;;4.70;99.90;;;;;;5033661;28;20018;-71
2021/04/09 07:38:17;;;;;;;14.73;8.95;;;4.40;99.90;;;;;;5033480;28;20380;-72
2021/04/09 07:40:59;;;;;;;13.38;8.38;;;4.60;99.90;;;;;;5034155;28;20523;-72
2021/04/09 07:43:28;;;;;;;16.73;8.75;;;4.90;99.90;;;;;;5033878;28;20071;-74
2021/04/09 07:45:57;;;;;;;13.27;8.50;;;4.80;99.90;;;;;;5033786;28;20041;-72
2021/04/09 07:48:34;;;;;;;19.67;8.90;;;4.80;99.90;;;;;;5031395;28;20161;-75
2021/04/09 07:51:01;;;;;;;14.73;9.38;;;5.00;99.90;;;;;;5033018;28;20030;-73
2021/04/09 07:53:40;;;;;;;14.52;8.77;;;5.10;99.90;;;;;;5032682;28;20388;-72
2021/04/09 07:56:07;;;;;;;19.08;8.85;;;5.20;99.90;;;;;;5033020;28;20028;-71
2021/04/09 07:58:34;;;;;;;15.60;7.90;;;5.20;99.90;;;;;;5034253;28;20030;-73
2021/04/09 08:01:00;;;;;;;11.68;8.40;;;5.40;99.90;;;;;;5033170;28;20487;-73
2021/04/09 08:03:37;;;;;;;15.20;8.13;;;5.70;99.90;;;;;;5030494;28;20083;-72
2021/04/09 08:06:08;;;;;;;11.63;7.80;;;6.00;99.90;;;;;;5032637;28;20488;-72
2021/04/09 08:08:34;;;;;;;15.95;8.68;;;6.00;99.90;;;;;;5032151;28;20484;-73
2021/04/09 08:11:29;;;;;;;13.80;7.47;;;6.00;99.90;;;;;;5032565;28;20387;-71
2021/04/09 08:14:24;;;;;;;13.38;8.13;;;6.10;99.90;;;;;;5031703;28;20030;-73
2021/04/09 08:16:51;;;;;;;14.88;7.82;;;6.30;99.90;;;;;;5031694;28;20052;-73
2021/04/09 08:19:20;;;;;;;17.98;8.57;;;6.00;99.90;;;;;;5031484;28;20044;-73
2021/04/09 08:22:04;;;;;;;12.07;8.02;;;5.90;99.90;;;;;;5031689;28;20029;-73
2021/04/09 08:24:35;;;;;;;16.65;9.00;;;5.90;99.90;;;;;;5031826;28;20029;-73
2021/04/09 08:27:02;;;;;;;11.98;8.10;;;6.20;99.90;;;;;;5032066;28;20130;-75
2021/04/09 08:29:30;;;;;;;14.38;8.48;;;6.40;99.90;;;;;;5031441;28;20460;-71
2021/04/09 08:31:57;;;;;;;16.35;7.45;;;7.00;99.90;;;;;;5024803;28;20060;-72
2021/04/09 08:34:23;;;;;;;15.77;7.40;;;7.90;99.90;;;;;;5030922;28;20025;-72
2021/04/09 08:36:50;;;;;;;13.25;6.85;;;8.30;99.90;;;;;;5031865;28;20021;-72
2021/04/09 08:39:18;;;;;;;16.60;7.47;;;8.60;99.90;;;;;;5032310;28;20145;-72
2021/04/09 08:41:48;;;;;;;10.10;7.40;;;9.20;99.90;;;;;;5032278;28;20029;-74
2021/04/09 08:44:14;;;;;;;12.55;7.70;;;9.50;99.90;;;;;;5033188;28;20033;-74
2021/04/09 08:46:41;;;;;;;14.10;8.13;;;9.40;99.90;;;;;;5036264;28;20081;-73
2021/04/09 08:49:09;;;;;;;13.52;8.18;;;8.90;99.90;;;;;;5039779;28;20077;-72
2021/04/09 08:51:37;;;;;;;12.13;8.55;;;8.60;99.90;;;;;;5039180;28;20134;-73
2021/04/09 08:54:19;;;;;;;15.40;8.13;;;8.20;99.90;;;;;;5030874;28;20032;-70
2021/04/09 08:56:45;;;;;;;11.25;7.22;;;8.10;99.90;;;;;;5033594;28;20442;-72
2021/04/09 08:59:10;;;;;;;11.93;7.53;;;8.30;99.90;;;;;;5038424;28;20037;-71
2021/04/09 09:01:36;;;;;;;13.80;7.88;;;8.40;99.90;;;;;;5038129;28;20030;-69
2021/04/09 09:04:20;;;;;;;12.48;7.32;;;8.50;99.90;;;;;;5036346;28;20025;-69
2021/04/09 09:06:47;;;;;;;23.10;13.50;;;8.20;99.90;;;;;;5036251;28;20038;-70
2021/04/09 09:09:27;;;;;;;18.02;7.07;;;8.60;99.90;;;;;;5035973;28;20118;-70
2021/04/09 09:12:00;;;;;;;13.38;7.65;;;8.30;99.90;;;;;;5035439;28;20026;-72
2021/04/09 09:14:35;;;;;;;14.95;7.25;;;8.40;99.90;;;;;;5034874;28;20029;-72
2021/04/09 09:17:22;;;;;;;8.15;6.10;;;8.30;99.90;;;;;;5036011;28;20025;-71
2021/04/09 09:20:11;;;;;;;11.02;6.70;;;8.20;99.90;;;;;;5036855;28;20056;-70
2021/04/09 09:22:48;;;;;;;9.55;6.75;;;8.80;99.90;;;;;;5034380;28;20522;-70
2021/04/09 09:25:15;;;;;;;9.52;6.57;;;9.10;99.20;;;;;;5034083;28;20037;-70
2021/04/09 09:27:52;;;;;;;12.82;7.40;;;9.40;99.40;;;;;;5035672;28;20561;-72
2021/04/09 09:30:36;;;;;;;10.05;6.78;;;9.80;99.00;;;;;;5035482;28;20139;-73
2021/04/09 09:33:20;;;;;;;9.18;6.32;;;9.90;97.80;;;;;;5034513;28;20503;-73
2021/04/09 09:35:56;;;;;;;10.93;6.47;;;9.60;97.20;;;;;;5035588;28;20075;-73
2021/04/09 09:38:51;;;;;;;12.95;7.03;;;10.00;97.50;;;;;;5034074;28;20036;-72
2021/04/09 09:41:40;;;;;;;11.27;7.07;;;9.90;97.20;;;;;;5035078;28;20030;-71
2021/04/09 09:44:35;;;;;;;11.70;7.95;;;10.30;97.00;;;;;;5034381;28;20021;-73
2021/04/09 09:47:13;;;;;;;11.40;7.35;;;10.70;96.90;;;;;;5026396;28;20049;-73
2021/04/09 09:49:39;;;;;;;14.07;7.00;;;11.00;95.60;;;;;;5035068;28;20026;-73
2021/04/09 09:52:21;;;;;;;17.55;7.28;;;11.00;94.90;;;;;;5034666;28;20025;-74
2021/04/09 09:55:11;;;;;;;16.42;8.23;;;11.60;95.40;;;;;;5032525;28;20137;-70
2021/04/09 09:57:47;;;;;;;14.80;8.13;;;11.70;94.00;;;;;;5034383;28;20105;-71
2021/04/09 10:00:14;;;;;;;10.88;7.68;;;11.70;94.70;;;;;;5033048;28;20037;-70
2021/04/09 10:02:41;;;;;;;14.40;8.15;;;11.80;93.80;;;;;;5033466;28;20032;-70
2021/04/09 10:05:08;;;;;;;55.00;38.25;;;12.10;93.60;;;;;;5034388;28;20026;-70
2021/04/09 10:07:34;;;;;;;22.70;14.63;;;12.30;93.20;;;;;;5032823;28;20515;-69
2021/04/09 10:10:00;;;;;;;45.67;33.35;;;12.40;91.90;;;;;;5033547;28;20112;-73
2021/04/09 10:12:25;;;;;;;15.25;8.43;;;12.70;91.50;;;;;;5032781;28;20026;-72
2021/04/09 10:14:53;;;;;;;12.07;7.40;;;12.80;91.60;;;;;;5033090;28;20171;-71
2021/04/09 10:17:19;;;;;;;11.13;7.10;;;12.90;92.00;;;;;;5034478;28;20379;-73
2021/04/09 10:20:03;;;;;;;14.43;5.97;;;12.90;91.90;;;;;;5035384;28;20044;-73
2021/04/09 10:22:29;;;;;;;11.07;6.40;;;13.20;94.00;;;;;;5034056;28;20031;-72
2021/04/09 10:24:55;;;;;;;8.27;4.68;;;13.20;90.60;;;;;;5032887;28;20021;-74
2021/04/09 10:27:21;;;;;;;14.23;5.95;;;13.30;92.50;;;;;;5034333;28;20021;-72
2021/04/09 10:29:47;;;;;;;11.95;6.35;;;13.50;90.10;;;;;;5036772;28;20048;-76
2021/04/09 10:32:21;;;;;;;8.98;6.15;;;13.40;85.20;;;;;;5038734;28;20017;-76
2021/04/09 10:34:48;;;;;;;11.45;5.88;;;13.30;85.60;;;;;;5034584;28;20036;-77
2021/04/09 10:37:25;;;;;;;10.82;5.93;;;13.20;87.20;;;;;;5033276;28;20067;-71
2021/04/09 10:39:53;;;;;;;8.93;6.13;;;13.30;84.80;;;;;;5033861;28;20448;-75
2021/04/09 10:42:19;;;;;;;17.00;7.00;;;13.50;84.00;;;;;;5033710;28;20022;-75
2021/04/09 10:44:45;;;;;;;12.07;6.50;;;13.20;85.50;;;;;;5032963;28;20108;-74
2021/04/09 10:47:11;;;;;;;16.73;6.78;;;13.50;83.10;;;;;;5033622;28;20117;-75
2021/04/09 10:49:39;;;;;;;11.57;6.00;;;12.80;83.30;;;;;;5033515;28;20032;-76
2021/04/09 10:52:13;;;;;;;12.15;5.75;;;12.80;87.30;;;;;;5033255;28;20029;-75
2021/04/09 10:54:44;;;;;;;6.32;4.10;;;13.50;86.60;;;;;;5032624;28;20064;-75
2021/04/09 10:57:15;;;;;;;6.32;3.95;;;13.60;77.40;;;;;;5033690;28;20097;-74
2021/04/09 10:59:45;;;;;;;3.22;2.90;;;13.90;74.30;;;;;;5033417;28;20030;-74
2021/04/09 11:02:22;;;;;;;8.32;3.03;;;14.20;67.70;;;;;;5033606;28;20029;-75
2021/04/09 11:04:55;;;;;;;8.70;2.85;;;14.50;68.00;;;;;;5032969;28;20534;-74
2021/04/09 11:07:38;;;;;;;5.38;2.97;;;14.60;65.50;;;;;;5031727;28;20044;-73
2021/04/09 11:10:05;;;;;;;7.97;2.80;;;14.70;62.60;;;;;;5033274;28;20436;-74
2021/04/09 11:12:30;;;;;;;7.20;2.63;;;15.40;62.60;;;;;;5033364;28;20033;-74
2021/04/09 11:15:14;;;;;;;4.70;2.50;;;14.90;58.90;;;;;;5031285;28;20392;-76
2021/04/09 11:18:00;;;;;;;6.22;2.65;;;14.90;60.80;;;;;;5033000;28;20021;-74
2021/04/09 11:20:34;;;;;;;6.57;2.50;;;15.10;57.50;;;;;;5031727;28;20026;-75
2021/04/09 11:23:06;;;;;;;5.63;3.42;;;15.00;57.00;;;;;;5032236;28;20026;-74
2021/04/09 11:25:34;;;;;;;6.85;2.50;;;15.20;58.50;;;;;;5032726;28;20407;-73
2021/04/09 11:28:01;;;;;;;5.43;2.60;;;15.10;57.80;;;;;;5032900;28;20460;-74
2021/04/09 11:30:33;;;;;;;2.97;2.00;;;14.50;56.00;;;;;;5032665;28;20040;-75
2021/04/09 11:32:59;;;;;;;4.45;2.20;;;14.60;58.10;;;;;;5032066;28;20408;-72
2021/04/09 11:35:31;;;;;;;4.57;1.70;;;15.20;57.40;;;;;;5032758;28;20021;-73
2021/04/09 11:37:57;;;;;;;5.38;2.53;;;15.20;54.90;;;;;;5032486;28;20416;-72
2021/04/09 11:40:34;;;;;;;4.20;1.80;;;15.70;56.20;;;;;;5033114;28;20026;-72
2021/04/09 11:43:00;;;;;;;3.35;1.77;;;16.00;54.60;;;;;;5032614;28;20021;-76
2021/04/09 11:45:41;;;;;;;5.18;1.90;;;15.90;54.20;;;;;;5032458;28;20036;-77
2021/04/09 11:48:25;;;;;;;5.30;1.65;;;15.80;53.60;;;;;;5037223;28;20030;-78
2021/04/09 11:50:52;;;;;;;3.47;1.70;;;16.00;54.10;;;;;;5035465;28;20021;-77
2021/04/09 11:53:18;;;;;;;3.38;1.40;;;15.90;52.80;;;;;;5035524;28;20504;-76
2021/04/09 11:55:47;;;;;;;2.95;1.50;;;16.20;51.40;;;;;;5034726;28;20048;-78
2021/04/09 11:58:23;;;;;;;3.08;1.58;;;17.90;51.20;;;;;;5036886;28;20111;-77
2021/04/09 12:01:00;;;;;;;4.03;1.80;;;18.80;48.40;;;;;;5041275;28;20571;-76
2021/04/09 12:03:43;;;;;;;4.30;1.60;;;20.60;48.70;;;;;;5047920;28;20005;-75
2021/04/09 12:06:13;;;;;;;4.63;1.55;;;21.60;41.70;;;;;;5051454;28;20025;-76
2021/04/09 12:08:39;;;;;;;2.75;1.40;;;20.10;40.40;;;;;;5048497;28;20022;-76
2021/04/09 12:11:07;;;;;;;3.47;1.85;;;19.00;42.60;;;;;;5046102;28;20052;-77
2021/04/09 12:13:38;;;;;;;2.45;1.30;;;18.50;42.00;;;;;;5034935;28;20030;-77
2021/04/09 12:16:07;;;;;;;3.53;1.55;;;18.80;44.10;;;;;;5033700;28;20060;-77
2021/04/09 12:18:33;;;;;;;3.83;1.63;;;18.60;43.10;;;;;;5032069;28;20108;-77
2021/04/09 12:20:59;;;;;;;4.00;1.50;;;17.80;42.70;;;;;;5030569;28;20109;-74
2021/04/09 12:23:25;;;;;;;4.60;1.52;;;17.20;42.80;;;;;;5031487;28;20025;-74
2021/04/09 12:25:55;;;;;;;3.35;1.48;;;17.20;43.20;;;;;;5031587;28;20080;-73
2021/04/09 12:28:20;;;;;;;2.03;1.40;;;17.40;43.10;;;;;;5028885;28;20026;-74
2021/04/09 12:30:46;;;;;;;2.63;1.48;;;17.90;42.50;;;;;;5029739;28;20021;-74
2021/04/09 12:33:12;;;;;;;2.33;1.35;;;17.80;40.50;;;;;;5029930;28;20029;-72
2021/04/09 12:35:37;;;;;;;3.25;1.45;;;18.00;42.80;;;;;;5031182;28;20165;-71
2021/04/09 12:38:03;;;;;;;1.63;1.30;;;18.90;41.90;;;;;;5031119;28;20026;-74
2021/04/09 12:40:28;;;;;;;3.45;1.38;;;18.70;40.30;;;;;;5031943;28;20025;-75
2021/04/09 12:42:58;;;;;;;3.63;1.33;;;18.00;40.20;;;;;;5031257;28;20099;-75
2021/04/09 12:45:24;;;;;;;3.90;1.70;;;17.60;41.20;;;;;;5030472;28;20030;-75
2021/04/09 12:47:50;;;;;;;4.63;1.30;;;17.80;41.40;;;;;;5031522;28;20033;-74
2021/04/09 12:50:16;;;;;;;3.05;1.33;;;18.00;40.70;;;;;;5032137;28;20029;-75